Harg, Missouri
Current Conditions -  °F | °C
As of 9:59 PM on Sunday 23 Nov 2014 (Local Time) from KCOU Reporting Station
Light Rain Light Rain  
Wind Chill: 42°   Ceiling: 200
Heat Index: 49°   Visibility: 3mi
Dew Point: 48°   Wind: 23mph
Humidity: 97%   Direction: 310°NW
Pressure: 29.27"   Gusts: 31mph
Location:  38.8994°N, 92.2391°W
Report Text: KCOU 240359Z AUTO 31020G27KT 3SM -RA BR OVC002 09/09 A2927 RMK AO2 PK WND 33027/0355 P0000 T00940089 $
Loading
Personal Weather Stations






























Interactive Weather Map New forecast layout! Learn more

10-Day Weather Forecast

Advertisements
Track Severe Weather on mobile